• Join FlightAware (Why Join?)
  • Login
  • US Flag 
11:13PM EDT


 

Airport Tracker/Info


-or-


 

Live Flight TrackerFlight Track Log ✈ N830QS ✈ 18-Oct-2013 ✈ KMCN - KISM

Flight Track Log - Related Links

Times and Time Zones

All times are in EDT time to prevent confusion due to time zone crossing. See the N830QS flight status page for this flight to view local times or setup timezone preferences in your user account.

Time Position Orientation Groundspeed Altitude Reporting Facility
EDT Latitude Longitude Course Direction KTS MPH feet Rate Location/Type
11:09AM 32.4556 -83.6547 158° South 281 323 11,500  Level Atlanta Center
11:10AM 32.3803 -83.6108 154° Southeast 286 329 14,400 1,740 Climbing Atlanta Center
11:11AM 32.2989 -83.5669 155° Southeast 303 349 15,000 900 Climbing Atlanta Center
11:12AM 32.1647 -83.3719 150° Southeast  Level Estimated
11:12AM 32.2108 -83.5158 154° Southeast 318 366 16,300  Level Atlanta Center
11:13AM 32.1153 -83.4592 153° Southeast 309 356 19,600 2,460 Climbing Jacksonville Center
11:14AM 32.0297 -83.4072 153° Southeast 324 373 21,600 2,160 Climbing Jacksonville Center
11:15AM 31.9381 -83.3625 158° South 339 390 24,000 1,920 Climbing Jacksonville Center
11:16AM 31.8547 -83.3231 158° South 351 404 25,500 900 Climbing Jacksonville Center
11:17AM 31.7608 -83.2761 157° South 363 418 25,900 240 Climbing Jacksonville Center
11:18AM 31.6714 -83.2294 156° South 363 418 26,000  Climbing Jacksonville Center
11:19AM 31.5817 -83.1853 157° South 358 412 26,000  Level Jacksonville Center
11:20AM 31.4939 -83.1361 154° Southeast 358 412 26,000  Level Jacksonville Center
11:21AM 31.4042 -83.0947 159° South 358 412 26,000  Level Jacksonville Center
11:22AM 31.3167 -83.0458 154° Southeast 353 406 26,000  Level Jacksonville Center
11:23AM 31.2292 -82.9994 156° South 353 406 26,000  Level Jacksonville Center
11:24AM 31.1392 -82.9533 156° South 353 406 26,000  Level Jacksonville Center
11:25AM 31.0433 -82.9072 158° South 353 406 26,000  Level Jacksonville Center
11:26AM 30.9556 -82.8586 155° Southeast 353 406 26,000  Level Jacksonville Center
11:27AM 30.8700 -82.8128 155° Southeast 353 406 26,000  Level Jacksonville Center
11:28AM 30.7842 -82.7692 156° South 348 400 26,000  Level Jacksonville Center
11:29AM 30.6944 -82.7211 155° Southeast 348 400 26,000  Level Jacksonville Center
11:30AM 30.6089 -82.6753 155° Southeast 343 395 26,000  Level Jacksonville Center
11:31AM 30.5211 -82.6369 159° South 343 395 26,000 -120 Level Jacksonville Center
11:32AM 30.4333 -82.5986 159° South 338 389 25,800 -540 Descending Jacksonville Center
11:33AM 30.3414 -82.5606 160° South 338 389 25,000 -420 Descending Jacksonville Center
11:34AM 30.2450 -82.5175 159° South 355 409 25,000  Level Jacksonville Center
11:35AM 30.1531 -82.4769 159° South 355 409 25,000  Level Jacksonville Center
11:36AM 30.0611 -82.4367 159° South 355 409 25,000  Level Jacksonville Center
11:37AM 29.9669 -82.3939 159° South 355 409 25,000  Level Jacksonville Center
11:38AM 29.8728 -82.3536 160° South 355 409 25,000  Level Jacksonville Center
11:39AM 29.7789 -82.3158 161° South 350 403 25,000  Level Jacksonville Center
11:40AM 29.6867 -82.2733 158° South 350 403 25,000  Level Jacksonville Center
11:41AM 29.5906 -82.2333 160° South 350 403 25,000 -840 Level Jacksonville Center
11:42AM 29.4983 -82.1911 158° South 350 403 23,400 -1,740 Descending Jacksonville Center
11:43AM 29.4083 -82.1536 160° South 350 403 21,600 -1,860 Descending Jacksonville Center
11:44AM 29.3164 -82.1161 160° South 350 403 19,700 -1,860 Descending Jacksonville Center
11:45AM 29.2283 -82.0789 160° South 350 403 17,900 -1,800 Descending Jacksonville Center
11:46AM 29.1406 -82.0414 160° South 350 403 16,200 -1,740 Descending Jacksonville Center
11:47AM 29.0567 -82.0067 160° South 344 396 14,500 -1,680 Descending Jacksonville Center
11:48AM 28.9753 -81.9739 161° South 325 374 12,900 -1,560 Descending Jacksonville Center
11:49AM 28.9039 -81.9439 160° South 315 362 11,400 -1,200 Descending Jacksonville Center
11:50AM 28.8244 -81.9114 160° South 304 350 10,600 -1,020 Descending Jacksonville Center
11:51AM 28.7492 -81.8814 161° South 299 344 9,400 -1,260 Descending Jacksonville Center
11:52AM 28.6500 -81.8500 164° South 293 337 7,900 -1,500 Descending Orlando TRACON
11:53AM 28.5833 -81.8167 156° South 256 295 6,100 -1,440 Descending Orlando TRACON
11:54AM 28.5167 -81.7833 156° South 237 273 5,000 -960 Descending Orlando TRACON
11:55AM 28.4833 -81.7500 139° Southeast 229 264 4,200 -1,080 Descending Orlando TRACON
11:56AM 28.4500 -81.6833 120° Southeast 208 239 3,000 -900 Descending Orlando TRACON
11:57AM 28.4167 -81.6167 120° Southeast 199 229 2,500 -540 Descending Orlando TRACON
11:58AM 28.4000 -81.5667 111° Southeast 199 229 2,000 -240 Descending Orlando TRACON
11:59AM 28.3667 -81.5167 127° Southeast 187 215 2,000 -300 Level Orlando TRACON
12:00PM 28.3500 -81.4833 120° Southeast 136 157 1,400 -780 Descending Orlando TRACON
12:01PM 28.3167 -81.4500 139° Southeast 116 133 600 -840 Descending Orlando TRACON
12:03PM 28.2898 -81.4371 174° South  Level Estimated
12:10PM 28.2898 -81.4371 350° North  Level Estimated
12:11PM 28.2898 -81.4371 350° North  Level Estimated
12:12PM 28.2898 -81.4371 350° North  Level Estimated
12:13PM 28.2898 -81.4371 350° North  Level Estimated